createdAt,value
2019-04-20T00:01:52.683Z,52.92
2019-04-20T00:04:30.988Z,53.00
2019-04-20T00:06:59.173Z,53.05
2019-04-20T00:09:34.870Z,53.11
2019-04-20T00:12:12.796Z,53.39
2019-04-20T00:14:40.525Z,53.43
2019-04-20T00:17:11.815Z,53.48
2019-04-20T00:19:48.617Z,53.50
2019-04-20T00:22:24.605Z,53.52
2019-04-20T00:25:04.024Z,53.45
2019-04-20T00:27:55.893Z,53.45
2019-04-20T00:30:28.776Z,53.33
2019-04-20T00:32:54.692Z,53.16
2019-04-20T00:35:13.136Z,53.20
2019-04-20T00:37:44.735Z,53.17
2019-04-20T00:40:17.121Z,53.22
2019-04-20T00:42:52.511Z,53.29
2019-04-20T00:45:28.337Z,53.39
2019-04-20T00:48:02.445Z,53.38
2019-04-20T00:50:44.386Z,53.35
2019-04-20T00:53:13.345Z,53.30
2019-04-20T00:55:36.088Z,53.25
2019-04-20T00:58:17.304Z,53.32
2019-04-20T01:01:04.111Z,53.30
2019-04-20T01:03:32.338Z,53.31
2019-04-20T01:06:19.181Z,53.35
2019-04-20T01:08:30.371Z,53.30
2019-04-20T01:11:02.707Z,53.33
2019-04-20T01:13:42.201Z,53.34
2019-04-20T01:16:21.855Z,53.36
2019-04-20T01:18:43.695Z,53.60
2019-04-20T01:21:19.852Z,53.68
2019-04-20T01:23:56.195Z,53.92
2019-04-20T01:26:24.277Z,54.23
2019-04-20T01:29:08.722Z,54.30
2019-04-20T01:31:36.316Z,54.57
2019-04-20T01:34:15.326Z,54.60
2019-04-20T01:36:50.799Z,54.66
2019-04-20T01:39:20.590Z,54.41
2019-04-20T01:41:43.460Z,54.44
2019-04-20T01:44:18.961Z,54.45
2019-04-20T01:46:53.502Z,54.64
2019-04-20T01:49:25.662Z,54.71
2019-04-20T01:52:04.914Z,54.87
2019-04-20T01:54:45.275Z,54.84
2019-04-20T01:57:26.193Z,54.96
2019-04-20T02:00:11.428Z,54.85
2019-04-20T02:02:45.064Z,54.91
2019-04-20T02:05:16.927Z,54.90
2019-04-20T02:07:49.338Z,54.76
2019-04-20T02:10:21.868Z,54.80
2019-04-20T02:12:59.374Z,54.87
2019-04-20T02:15:35.211Z,54.82
2019-04-20T02:18:16.459Z,54.85
2019-04-20T02:20:54.541Z,54.86
2019-04-20T02:23:22.365Z,54.77
2019-04-20T02:25:41.903Z,54.72
2019-04-20T02:28:27.610Z,54.63
2019-04-20T02:31:23.055Z,54.66
2019-04-20T02:34:15.688Z,54.62
2019-04-20T02:37:00.200Z,54.45
2019-04-20T02:42:26.491Z,54.56
2019-04-20T02:49:40.316Z,54.37
2019-04-20T02:54:46.763Z,53.87
2019-04-20T02:57:43.447Z,53.69
2019-04-20T03:02:17.236Z,53.43
2019-04-20T03:04:40.251Z,53.17
2019-04-20T03:07:14.945Z,52.90
2019-04-20T03:09:56.279Z,52.80
2019-04-20T03:12:34.454Z,52.52
2019-04-20T03:14:58.337Z,52.15
2019-04-20T03:17:42.654Z,51.86
2019-04-20T03:20:03.515Z,49.97
2019-04-20T03:23:07.338Z,47.58
2019-04-20T03:25:23.816Z,45.56
2019-04-20T03:28:01.271Z,42.99
2019-04-20T03:31:18.404Z,40.46
2019-04-20T03:33:23.820Z,39.05
2019-04-20T03:35:43.564Z,37.36
2019-04-20T03:38:14.493Z,35.64
2019-04-20T03:40:42.720Z,34.21
2019-04-20T03:43:02.687Z,33.00
2019-04-20T03:45:43.921Z,32.65
2019-04-20T03:48:26.617Z,32.10
2019-04-20T03:51:04.644Z,30.78
2019-04-20T03:53:34.456Z,30.98
2019-04-20T03:56:31.007Z,29.31
2019-04-20T03:58:55.385Z,28.85
2019-04-20T04:02:07.511Z,28.79
2019-04-20T04:04:29.845Z,29.00
2019-04-20T04:06:47.076Z,27.04
2019-04-20T04:09:25.880Z,27.04
2019-04-20T04:11:58.507Z,26.49
2019-04-20T04:14:22.142Z,25.52
2019-04-20T04:16:57.498Z,25.89
2019-04-20T04:19:32.852Z,25.35
2019-04-20T04:22:12.677Z,25.77
2019-04-20T04:24:44.855Z,25.10
2019-04-20T04:27:28.590Z,26.36
2019-04-20T04:29:56.934Z,25.72
2019-04-20T04:32:51.374Z,24.91
2019-04-20T04:35:03.072Z,23.97
2019-04-20T04:37:40.511Z,23.74
2019-04-20T04:40:26.458Z,23.01
2019-04-20T04:42:52.529Z,23.32
2019-04-20T04:45:07.504Z,23.33
2019-04-20T04:47:36.766Z,22.37
2019-04-20T04:50:16.412Z,22.71
2019-04-20T04:52:52.480Z,23.08
2019-04-20T04:55:27.349Z,23.30
2019-04-20T04:57:51.568Z,22.84
2019-04-20T05:00:29.068Z,22.09
2019-04-20T05:03:06.963Z,21.00
2019-04-20T05:05:50.409Z,20.59
2019-04-20T05:08:15.492Z,20.70
2019-04-20T05:10:41.619Z,21.44
2019-04-20T05:13:13.742Z,20.53
2019-04-20T05:15:58.314Z,19.65
2019-04-20T05:18:45.041Z,20.41
2019-04-20T05:21:19.041Z,19.89
2019-04-20T05:23:41.377Z,21.51
2019-04-20T05:26:25.838Z,20.99
2019-04-20T05:28:51.769Z,20.72
2019-04-20T05:31:25.620Z,21.61
2019-04-20T05:36:46.486Z,21.59
2019-04-20T05:39:26.958Z,21.30
2019-04-20T05:41:53.220Z,21.30
2019-04-20T05:44:22.126Z,20.21
2019-04-20T05:47:06.980Z,20.89
2019-04-20T05:49:34.923Z,19.18
2019-04-20T05:52:24.092Z,19.45
2019-04-20T05:54:47.586Z,18.31
2019-04-20T05:57:26.336Z,18.50
2019-04-20T06:00:05.287Z,18.51
2019-04-20T06:02:27.674Z,18.73
2019-04-20T06:05:04.378Z,18.95
2019-04-20T06:07:40.381Z,18.23
2019-04-20T06:10:19.076Z,18.36
2019-04-20T06:12:40.354Z,18.46
2019-04-20T06:15:15.556Z,17.81
2019-04-20T06:18:00.991Z,19.19
2019-04-20T06:20:36.042Z,18.42
2019-04-20T06:23:34.532Z,17.26
2019-04-20T06:26:20.658Z,19.05
2019-04-20T06:28:35.252Z,18.54
2019-04-20T06:31:18.051Z,20.92
2019-04-20T06:34:27.388Z,20.65
2019-04-20T06:36:47.276Z,20.09
2019-04-20T06:39:20.422Z,21.19
2019-04-20T06:44:30.321Z,21.73
2019-04-20T06:47:04.376Z,21.61
2019-04-20T06:49:32.927Z,21.47
2019-04-20T06:52:23.064Z,20.45
2019-04-20T06:55:01.634Z,18.94
2019-04-20T06:57:35.669Z,19.10
2019-04-20T07:00:11.407Z,19.43
2019-04-20T07:02:44.392Z,17.90
2019-04-20T07:08:07.014Z,17.49
2019-04-20T07:10:26.242Z,20.48
2019-04-20T07:12:53.305Z,19.86
2019-04-20T07:15:29.162Z,17.39
2019-04-20T07:18:10.102Z,18.37
2019-04-20T07:20:48.566Z,18.21
2019-04-20T07:23:24.340Z,15.47
2019-04-20T07:25:52.803Z,17.41
2019-04-20T07:28:29.180Z,17.72
2019-04-20T07:30:55.277Z,19.64
2019-04-20T07:33:34.922Z,19.70
2019-04-20T07:36:04.101Z,17.87
2019-04-20T07:38:40.126Z,18.26
2019-04-20T07:41:16.499Z,18.46
2019-04-20T07:43:56.847Z,18.08
2019-04-20T07:46:26.334Z,18.96
2019-04-20T07:48:50.622Z,18.07
2019-04-20T07:51:12.523Z,18.93
2019-04-20T07:53:57.523Z,20.02
2019-04-20T07:56:30.539Z,20.59
2019-04-20T07:58:50.898Z,22.08
2019-04-20T08:02:05.953Z,21.01
2019-04-20T08:04:29.054Z,21.05
2019-04-20T08:06:51.916Z,22.76
2019-04-20T08:09:28.879Z,24.85
2019-04-20T08:12:22.074Z,26.08
2019-04-20T08:14:56.895Z,26.61
2019-04-20T08:19:54.865Z,27.35
2019-04-20T08:22:37.046Z,27.26
2019-04-20T08:24:55.210Z,27.30
2019-04-20T08:27:29.777Z,27.90
2019-04-20T08:30:23.028Z,28.10
2019-04-20T08:32:59.526Z,28.38
2019-04-20T08:35:42.554Z,28.38
2019-04-20T08:38:38.340Z,27.72
2019-04-20T08:40:46.281Z,27.61
2019-04-20T08:43:30.254Z,28.08
2019-04-20T08:45:50.944Z,27.73
2019-04-20T08:51:02.328Z,27.43
2019-04-20T08:53:30.677Z,28.51
2019-04-20T08:55:57.105Z,28.55
2019-04-20T08:58:18.108Z,27.88
2019-04-20T09:00:56.515Z,28.21
2019-04-20T09:03:31.664Z,27.25
2019-04-20T09:06:08.606Z,27.19
2019-04-20T09:08:46.643Z,27.51
2019-04-20T09:11:19.754Z,26.77
2019-04-20T09:13:48.001Z,27.08
2019-04-20T09:16:15.270Z,26.55
2019-04-20T09:18:56.906Z,26.79
2019-04-20T09:21:29.730Z,26.37
2019-04-20T09:24:21.754Z,27.34
2019-04-20T09:26:43.351Z,26.41
2019-04-20T09:29:12.775Z,26.82
2019-04-20T09:31:47.050Z,27.03
2019-04-20T09:34:26.027Z,26.29
2019-04-20T09:37:09.588Z,26.33
2019-04-20T09:39:33.861Z,26.64
2019-04-20T09:42:04.027Z,26.24
2019-04-20T09:44:41.928Z,25.91
2019-04-20T09:47:10.397Z,26.42
2019-04-20T09:49:51.954Z,25.76
2019-04-20T09:52:30.066Z,25.21
2019-04-20T09:55:03.181Z,25.23
2019-04-20T09:57:38.045Z,25.27
2019-04-20T10:00:12.158Z,25.41
2019-04-20T10:02:32.593Z,25.79
2019-04-20T10:05:02.299Z,25.80
2019-04-20T10:07:36.953Z,26.79
2019-04-20T10:10:22.745Z,25.41
2019-04-20T10:12:42.269Z,25.76
2019-04-20T10:15:19.504Z,25.70
2019-04-20T10:17:47.796Z,25.27
2019-04-20T10:20:27.688Z,25.69
2019-04-20T10:22:52.763Z,25.39
2019-04-20T10:25:24.569Z,25.58
2019-04-20T10:27:56.149Z,24.54
2019-04-20T10:30:30.515Z,24.49
2019-04-20T10:33:03.575Z,24.79
2019-04-20T10:35:35.943Z,24.94
2019-04-20T10:38:09.605Z,25.47
2019-04-20T10:40:50.732Z,25.74
2019-04-20T10:43:14.632Z,25.94
2019-04-20T10:45:46.827Z,25.23
2019-04-20T10:48:19.337Z,25.03
2019-04-20T10:50:50.961Z,24.95
2019-04-20T10:53:23.773Z,23.93
2019-04-20T10:55:55.799Z,24.53
2019-04-20T10:58:27.581Z,24.75
2019-04-20T11:00:59.715Z,24.23
2019-04-20T11:03:32.318Z,23.90
2019-04-20T11:06:04.852Z,24.78
2019-04-20T11:08:36.554Z,24.51
2019-04-20T11:11:14.809Z,25.07
2019-04-20T11:13:41.558Z,25.35
2019-04-20T11:16:14.769Z,25.32
2019-04-20T11:18:47.281Z,25.33
2019-04-20T11:21:19.611Z,25.29
2019-04-20T11:23:52.096Z,26.18
2019-04-20T11:26:24.299Z,25.64
2019-04-20T11:28:55.939Z,25.20
2019-04-20T11:31:37.203Z,25.05
2019-04-20T11:34:01.023Z,25.41
2019-04-20T11:36:33.259Z,25.54
2019-04-20T11:39:07.159Z,25.03
2019-04-20T11:41:39.078Z,25.36
2019-04-20T11:44:11.702Z,25.87
2019-04-20T11:46:44.922Z,25.52
2019-04-20T11:49:17.508Z,25.52
2019-04-20T11:51:49.815Z,26.01
2019-04-20T11:54:22.110Z,26.68
2019-04-20T11:56:53.436Z,26.39
2019-04-20T11:59:25.390Z,25.81
2019-04-20T12:02:04.643Z,25.92
2019-04-20T12:04:44.221Z,26.01
2019-04-20T12:07:11.055Z,25.57
2019-04-20T12:09:42.054Z,26.00
2019-04-20T12:12:26.740Z,26.15
2019-04-20T12:14:46.877Z,26.21
2019-04-20T12:17:19.627Z,26.31
2019-04-20T12:19:52.986Z,26.19
2019-04-20T12:22:26.141Z,26.54
2019-04-20T12:24:58.197Z,26.25
2019-04-20T12:27:30.503Z,26.49
2019-04-20T12:30:02.117Z,25.86
2019-04-20T12:32:42.302Z,25.82
2019-04-20T12:35:12.091Z,25.75
2019-04-20T12:37:45.105Z,25.45
2019-04-20T12:40:19.924Z,25.47
2019-04-20T12:42:53.069Z,25.75
2019-04-20T12:45:25.920Z,26.31
2019-04-20T12:47:57.664Z,25.62
2019-04-20T12:50:29.819Z,26.05
2019-04-20T12:53:02.358Z,25.55
2019-04-20T12:55:33.118Z,25.78
2019-04-20T12:58:05.342Z,25.53
2019-04-20T13:00:49.683Z,25.66
2019-04-20T13:03:23.567Z,25.63
2019-04-20T13:05:56.121Z,25.45
2019-04-20T13:08:34.014Z,25.42
2019-04-20T13:11:04.458Z,25.43
2019-04-20T13:13:38.661Z,24.88
2019-04-20T13:16:24.005Z,24.82
2019-04-20T13:18:57.457Z,25.16
2019-04-20T13:21:29.258Z,24.92
2019-04-20T13:24:01.313Z,25.19
2019-04-20T13:26:35.157Z,25.02
2019-04-20T13:29:06.889Z,24.70
2019-04-20T13:31:39.998Z,25.27
2019-04-20T13:34:13.313Z,25.24
2019-04-20T13:36:46.278Z,25.19
2019-04-20T13:39:18.107Z,25.53
2019-04-20T13:41:59.820Z,25.77
2019-04-20T13:44:24.029Z,25.34
2019-04-20T13:46:56.754Z,24.90
2019-04-20T13:49:29.131Z,25.22
2019-04-20T13:52:02.303Z,25.47
2019-04-20T13:54:35.834Z,25.05
2019-04-20T13:57:10.018Z,25.27
2019-04-20T13:59:48.055Z,25.75
2019-04-20T14:02:30.903Z,25.84
2019-04-20T14:05:04.648Z,25.21
2019-04-20T14:07:37.949Z,25.16
2019-04-20T14:10:09.626Z,24.78
2019-04-20T14:12:52.390Z,25.00
2019-04-20T14:15:15.254Z,25.20
2019-04-20T14:17:47.023Z,25.81
2019-04-20T14:20:21.632Z,25.28
2019-04-20T14:22:52.631Z,24.96
2019-04-20T14:25:24.917Z,25.33
2019-04-20T14:27:57.326Z,25.21
2019-04-20T14:30:29.226Z,25.23
2019-04-20T14:33:01.107Z,25.80
2019-04-20T14:35:34.646Z,26.19
2019-04-20T14:38:06.097Z,26.05
2019-04-20T14:40:38.084Z,25.70
2019-04-20T14:43:10.947Z,25.26
2019-04-20T14:45:43.098Z,24.90
2019-04-20T14:48:14.603Z,24.87
2019-04-20T14:50:47.714Z,24.70
2019-04-20T14:53:19.851Z,25.05
2019-04-20T14:55:51.571Z,25.38
2019-04-20T14:58:42.175Z,25.72
2019-04-20T15:01:32.531Z,25.74
2019-04-20T15:04:09.993Z,25.54
2019-04-20T15:06:39.777Z,25.76
2019-04-20T15:09:12.745Z,25.24
2019-04-20T15:11:46.298Z,25.43
2019-04-20T15:14:18.696Z,25.68
2019-04-20T15:16:50.876Z,25.90
2019-04-20T15:19:25.403Z,26.11
2019-04-20T15:21:59.804Z,26.22
2019-04-20T15:24:31.607Z,26.22
2019-04-20T15:27:04.656Z,25.80
2019-04-20T15:29:36.464Z,26.04
2019-04-20T15:32:08.592Z,26.16
2019-04-20T15:34:40.492Z,26.47
2019-04-20T15:37:12.360Z,26.75
2019-04-20T15:39:45.218Z,26.10
2019-04-20T15:42:17.132Z,26.22
2019-04-20T15:44:49.336Z,25.78
2019-04-20T15:47:20.763Z,25.62
2019-04-20T15:49:53.691Z,25.51
2019-04-20T15:52:29.421Z,25.92
2019-04-20T15:55:01.854Z,26.15
2019-04-20T15:57:31.650Z,26.56
2019-04-20T16:00:06.553Z,26.69
2019-04-20T16:02:43.382Z,26.96
2019-04-20T16:05:24.017Z,26.90
2019-04-20T16:08:00.182Z,27.33
2019-04-20T16:10:30.730Z,27.45
2019-04-20T16:13:15.579Z,27.51
2019-04-20T16:15:37.831Z,27.81
2019-04-20T16:18:10.210Z,28.05
2019-04-20T16:20:52.194Z,27.98
2019-04-20T16:23:16.514Z,28.24
2019-04-20T16:25:53.412Z,28.38
2019-04-20T16:28:25.704Z,28.36
2019-04-20T16:30:57.615Z,28.54
2019-04-20T16:33:30.507Z,28.65
2019-04-20T16:36:04.696Z,28.84
2019-04-20T16:38:37.249Z,29.15
2019-04-20T16:41:08.416Z,29.38
2019-04-20T16:43:43.233Z,29.78
2019-04-20T16:46:16.865Z,29.92
2019-04-20T16:48:48.184Z,30.24
2019-04-20T16:51:20.825Z,30.43
2019-04-20T16:53:53.852Z,30.55
2019-04-20T16:56:26.547Z,30.77
2019-04-20T16:59:05.449Z,30.84
2019-04-20T17:01:31.738Z,30.89
2019-04-20T17:04:07.812Z,31.44
2019-04-20T17:06:40.108Z,31.14
2019-04-20T17:09:12.650Z,31.34
2019-04-20T17:11:45.691Z,31.00
2019-04-20T17:14:19.077Z,31.11
2019-04-20T17:16:51.309Z,30.82
2019-04-20T17:19:23.856Z,30.84
2019-04-20T17:21:57.254Z,30.57
2019-04-20T17:24:29.359Z,30.35
2019-04-20T17:27:08.775Z,30.39
2019-04-20T17:29:44.504Z,30.42
2019-04-20T17:32:19.279Z,30.43
2019-04-20T17:35:04.676Z,30.19
2019-04-20T17:37:27.387Z,30.46
2019-04-20T17:40:19.057Z,30.19
2019-04-20T17:42:46.241Z,30.18
2019-04-20T17:45:14.126Z,29.85
2019-04-20T17:47:57.805Z,29.92
2019-04-20T17:50:31.807Z,30.11
2019-04-20T17:53:04.083Z,29.90
2019-04-20T17:55:40.376Z,30.28
2019-04-20T17:58:19.408Z,30.13
2019-04-20T18:00:58.257Z,30.54
2019-04-20T18:04:05.873Z,30.74
2019-04-20T18:06:30.377Z,31.07
2019-04-20T18:08:53.795Z,31.27
2019-04-20T18:11:21.313Z,31.40
2019-04-20T18:13:57.906Z,31.59
2019-04-20T18:16:46.573Z,31.74
2019-04-20T18:19:11.589Z,31.94
2019-04-20T18:21:41.493Z,32.19
2019-04-20T18:24:24.227Z,32.41
2019-04-20T18:27:03.214Z,32.30
2019-04-20T18:29:41.007Z,32.54
2019-04-20T18:31:55.594Z,32.44
2019-04-20T18:34:36.181Z,32.70
2019-04-20T18:37:12.049Z,32.86
2019-04-20T18:39:50.572Z,32.91
2019-04-20T18:42:24.340Z,32.85
2019-04-20T18:45:11.363Z,32.79
2019-04-20T18:47:39.179Z,32.84
2019-04-20T18:50:07.740Z,32.95
2019-04-20T18:52:29.475Z,33.15
2019-04-20T18:55:01.683Z,32.92
2019-04-20T18:57:37.919Z,33.08
2019-04-20T19:00:20.019Z,33.18
2019-04-20T19:02:50.967Z,33.32
2019-04-20T19:05:19.980Z,33.44
2019-04-20T19:07:59.294Z,33.13
2019-04-20T19:10:30.857Z,32.94
2019-04-20T19:13:06.244Z,33.12
2019-04-20T19:15:56.596Z,33.63
2019-04-20T19:18:27.156Z,34.03
2019-04-20T19:20:55.093Z,33.90
2019-04-20T19:23:27.151Z,33.49
2019-04-20T19:26:04.419Z,33.36
2019-04-20T19:28:42.231Z,32.81
2019-04-20T19:31:21.364Z,32.58
2019-04-20T19:34:01.835Z,32.98
2019-04-20T19:36:24.490Z,33.33
2019-04-20T19:39:01.387Z,33.73
2019-04-20T19:41:32.124Z,33.75
2019-04-20T19:44:07.398Z,34.29
2019-04-20T19:49:11.297Z,33.97
2019-04-20T19:52:02.727Z,33.36
2019-04-20T19:54:32.779Z,33.26
2019-04-20T19:56:54.085Z,32.51
2019-04-20T19:59:23.476Z,33.73
2019-04-20T20:01:47.749Z,32.69
2019-04-20T20:04:19.723Z,32.90
2019-04-20T20:06:59.058Z,33.11
2019-04-20T20:09:25.906Z,33.39
2019-04-20T20:12:04.995Z,33.25
2019-04-20T20:14:36.789Z,33.03
2019-04-20T20:17:27.331Z,33.67
2019-04-20T20:20:06.963Z,34.27
2019-04-20T20:22:21.659Z,35.00
2019-04-20T20:24:45.191Z,36.17
2019-04-20T20:27:25.837Z,35.72
2019-04-20T20:29:59.493Z,35.72
2019-04-20T20:32:41.849Z,35.39
2019-04-20T20:35:05.571Z,35.34
2019-04-20T20:37:39.974Z,35.58
2019-04-20T20:40:16.126Z,35.26
2019-04-20T20:42:52.720Z,34.93
2019-04-20T20:45:23.631Z,35.08
2019-04-20T20:48:05.001Z,35.33
2019-04-20T20:50:36.462Z,35.47
2019-04-20T20:53:06.100Z,35.38
2019-04-20T20:55:34.457Z,36.06
2019-04-20T20:58:09.795Z,35.70
2019-04-20T21:00:47.185Z,35.92
2019-04-20T21:03:14.594Z,36.39
2019-04-20T21:05:41.830Z,36.14
2019-04-20T21:08:13.558Z,35.78
2019-04-20T21:10:46.388Z,36.05
2019-04-20T21:13:19.205Z,36.05
2019-04-20T21:15:58.013Z,36.81
2019-04-20T21:18:44.841Z,36.36
2019-04-20T21:21:11.755Z,35.84
2019-04-20T21:23:42.789Z,35.69
2019-04-20T21:26:11.479Z,36.02
2019-04-20T21:28:41.945Z,35.86
2019-04-20T21:31:20.409Z,35.80
2019-04-20T21:33:47.210Z,36.42
2019-04-20T21:36:24.602Z,35.80
2019-04-20T21:38:53.526Z,35.69
2019-04-20T21:41:27.865Z,35.72
2019-04-20T21:44:01.149Z,36.09
2019-04-20T21:46:39.632Z,35.88
2019-04-20T21:49:23.661Z,36.13
2019-04-20T21:51:47.555Z,36.51
2019-04-20T21:54:13.971Z,38.19
2019-04-20T21:56:55.014Z,39.79
2019-04-20T21:59:26.941Z,40.16
2019-04-20T22:02:00.019Z,40.17
2019-04-20T22:04:27.190Z,40.14
2019-04-20T22:07:00.368Z,40.79
2019-04-20T22:09:40.068Z,41.32
2019-04-20T22:12:07.767Z,41.16
2019-04-20T22:14:39.828Z,41.09
2019-04-20T22:17:14.198Z,40.42
2019-04-20T22:20:02.545Z,40.46
2019-04-20T22:22:39.779Z,40.33
2019-04-20T22:25:11.045Z,40.21
2019-04-20T22:27:31.469Z,39.71
2019-04-20T22:30:00.007Z,40.10
2019-04-20T22:32:36.684Z,40.19
2019-04-20T22:35:12.627Z,40.09
2019-04-20T22:38:06.364Z,41.99
2019-04-20T22:40:34.776Z,41.49
2019-04-20T22:43:06.385Z,41.23
2019-04-20T22:45:46.636Z,41.47
2019-04-20T22:48:15.722Z,41.65
2019-04-20T22:51:08.312Z,42.23
2019-04-20T22:53:37.614Z,43.31
2019-04-20T22:56:16.732Z,43.37
2019-04-20T22:58:40.394Z,44.99
2019-04-20T23:01:04.533Z,44.69
2019-04-20T23:03:34.702Z,44.58
2019-04-20T23:06:06.934Z,43.88
2019-04-20T23:08:38.811Z,43.60
2019-04-20T23:11:18.923Z,43.41
2019-04-20T23:13:47.008Z,43.23
2019-04-20T23:16:17.483Z,42.53
2019-04-20T23:18:49.987Z,42.40
2019-04-20T23:21:21.785Z,42.19
2019-04-20T23:24:02.696Z,42.07
2019-04-20T23:26:33.488Z,41.71
2019-04-20T23:29:02.550Z,42.83
2019-04-20T23:31:34.642Z,43.34
2019-04-20T23:34:10.120Z,43.13
2019-04-20T23:36:45.387Z,42.97
2019-04-20T23:39:15.277Z,43.28
2019-04-20T23:41:52.678Z,43.49
2019-04-20T23:44:23.141Z,45.51
2019-04-20T23:47:06.214Z,49.14
2019-04-20T23:49:53.339Z,49.52
2019-04-20T23:52:32.501Z,50.96
2019-04-20T23:54:49.073Z,51.60
2019-04-20T23:57:15.663Z,51.67
2019-04-20T23:59:49.877Z,52.30
